sensor_id;sensor_type;location;lat;lon;timestamp;P1;durP1;ratioP1;P2;durP2;ratioP2
5085;SDS011;4715;51.660;7.082;2022-11-11T00:00:59;3.70;;;3.37;;
5085;SDS011;4715;51.660;7.082;2022-11-11T00:03:21;4.03;;;2.77;;
5085;SDS011;4715;51.660;7.082;2022-11-11T00:05:43;5.37;;;3.47;;
5085;SDS011;4715;51.660;7.082;2022-11-11T00:08:06;3.63;;;2.90;;
5085;SDS011;4715;51.660;7.082;2022-11-11T00:10:29;6.80;;;2.90;;
5085;SDS011;4715;51.660;7.082;2022-11-11T00:12:52;6.70;;;3.10;;
5085;SDS011;4715;51.660;7.082;2022-11-11T00:15:14;5.57;;;2.80;;
5085;SDS011;4715;51.660;7.082;2022-11-11T00:17:36;5.50;;;2.97;;
5085;SDS011;4715;51.660;7.082;2022-11-11T00:20:15;3.23;;;2.53;;
5085;SDS011;4715;51.660;7.082;2022-11-11T00:22:55;3.13;;;2.83;;
5085;SDS011;4715;51.660;7.082;2022-11-11T00:25:34;4.60;;;3.20;;
5085;SDS011;4715;51.660;7.082;2022-11-11T00:27:57;6.90;;;3.50;;
5085;SDS011;4715;51.660;7.082;2022-11-11T00:30:20;5.00;;;3.80;;
5085;SDS011;4715;51.660;7.082;2022-11-11T00:32:41;3.93;;;3.63;;
5085;SDS011;4715;51.660;7.082;2022-11-11T00:35:04;3.93;;;3.63;;
5085;SDS011;4715;51.660;7.082;2022-11-11T00:37:44;4.17;;;3.03;;
5085;SDS011;4715;51.660;7.082;2022-11-11T00:40:09;6.37;;;3.60;;
5085;SDS011;4715;51.660;7.082;2022-11-11T00:42:31;5.63;;;5.10;;
5085;SDS011;4715;51.660;7.082;2022-11-11T00:44:54;6.90;;;3.87;;
5085;SDS011;4715;51.660;7.082;2022-11-11T00:47:16;6.53;;;3.93;;
5085;SDS011;4715;51.660;7.082;2022-11-11T00:49:56;6.83;;;3.90;;
5085;SDS011;4715;51.660;7.082;2022-11-11T00:52:35;4.70;;;4.30;;
5085;SDS011;4715;51.660;7.082;2022-11-11T00:54:57;3.27;;;2.97;;
5085;SDS011;4715;51.660;7.082;2022-11-11T00:57:18;5.63;;;3.40;;
5085;SDS011;4715;51.660;7.082;2022-11-11T00:59:40;3.50;;;3.20;;
5085;SDS011;4715;51.660;7.082;2022-11-11T01:02:03;8.93;;;3.40;;
5085;SDS011;4715;51.660;7.082;2022-11-11T01:04:25;10.23;;;3.20;;
5085;SDS011;4715;51.660;7.082;2022-11-11T01:06:47;7.60;;;3.87;;
5085;SDS011;4715;51.660;7.082;2022-11-11T01:09:09;5.20;;;3.30;;
5085;SDS011;4715;51.660;7.082;2022-11-11T01:11:30;3.60;;;3.10;;
5085;SDS011;4715;51.660;7.082;2022-11-11T01:13:53;7.90;;;3.40;;
5085;SDS011;4715;51.660;7.082;2022-11-11T01:16:15;3.23;;;2.90;;
5085;SDS011;4715;51.660;7.082;2022-11-11T01:18:40;7.80;;;2.97;;
5085;SDS011;4715;51.660;7.082;2022-11-11T01:21:03;5.47;;;3.63;;
5085;SDS011;4715;51.660;7.082;2022-11-11T01:23:27;4.10;;;3.70;;
5085;SDS011;4715;51.660;7.082;2022-11-11T01:25:49;4.83;;;3.27;;
5085;SDS011;4715;51.660;7.082;2022-11-11T01:28:12;7.77;;;3.50;;
5085;SDS011;4715;51.660;7.082;2022-11-11T01:30:34;9.30;;;3.47;;
5085;SDS011;4715;51.660;7.082;2022-11-11T01:32:56;3.80;;;3.50;;
5085;SDS011;4715;51.660;7.082;2022-11-11T01:35:20;5.50;;;3.73;;
5085;SDS011;4715;51.660;7.082;2022-11-11T01:37:42;7.30;;;3.30;;
5085;SDS011;4715;51.660;7.082;2022-11-11T01:40:04;4.00;;;3.30;;
5085;SDS011;4715;51.660;7.082;2022-11-11T01:42:26;4.50;;;3.97;;
5085;SDS011;4715;51.660;7.082;2022-11-11T01:44:48;6.50;;;3.40;;
5085;SDS011;4715;51.660;7.082;2022-11-11T01:47:10;4.87;;;3.97;;
5085;SDS011;4715;51.660;7.082;2022-11-11T01:49:32;6.60;;;3.30;;
5085;SDS011;4715;51.660;7.082;2022-11-11T01:52:00;5.10;;;3.00;;
5085;SDS011;4715;51.660;7.082;2022-11-11T01:54:28;3.63;;;3.33;;
5085;SDS011;4715;51.660;7.082;2022-11-11T01:56:54;4.43;;;3.10;;
5085;SDS011;4715;51.660;7.082;2022-11-11T01:59:21;5.60;;;3.37;;
5085;SDS011;4715;51.660;7.082;2022-11-11T02:01:43;7.90;;;3.17;;
5085;SDS011;4715;51.660;7.082;2022-11-11T02:04:05;7.90;;;4.30;;
5085;SDS011;4715;51.660;7.082;2022-11-11T02:06:46;4.13;;;3.00;;
5085;SDS011;4715;51.660;7.082;2022-11-11T02:09:12;4.87;;;3.27;;
5085;SDS011;4715;51.660;7.082;2022-11-11T02:11:34;3.63;;;3.33;;
5085;SDS011;4715;51.660;7.082;2022-11-11T02:14:16;3.27;;;2.63;;
5085;SDS011;4715;51.660;7.082;2022-11-11T02:16:56;6.60;;;3.40;;
5085;SDS011;4715;51.660;7.082;2022-11-11T02:19:19;6.10;;;3.53;;
5085;SDS011;4715;51.660;7.082;2022-11-11T02:21:46;3.60;;;3.30;;
5085;SDS011;4715;51.660;7.082;2022-11-11T02:24:15;7.60;;;3.80;;
5085;SDS011;4715;51.660;7.082;2022-11-11T02:26:40;4.83;;;4.43;;
5085;SDS011;4715;51.660;7.082;2022-11-11T02:29:07;7.53;;;4.43;;
5085;SDS011;4715;51.660;7.082;2022-11-11T02:31:31;6.10;;;3.40;;
5085;SDS011;4715;51.660;7.082;2022-11-11T02:33:53;5.00;;;3.80;;
5085;SDS011;4715;51.660;7.082;2022-11-11T02:36:15;6.60;;;3.93;;
5085;SDS011;4715;51.660;7.082;2022-11-11T02:38:36;5.47;;;3.97;;
5085;SDS011;4715;51.660;7.082;2022-11-11T02:40:59;7.13;;;4.30;;
5085;SDS011;4715;51.660;7.082;2022-11-11T02:43:39;4.20;;;3.07;;
5085;SDS011;4715;51.660;7.082;2022-11-11T02:46:02;13.77;;;3.90;;
5085;SDS011;4715;51.660;7.082;2022-11-11T02:48:26;5.63;;;3.00;;
5085;SDS011;4715;51.660;7.082;2022-11-11T02:50:49;5.47;;;4.67;;
5085;SDS011;4715;51.660;7.082;2022-11-11T02:53:11;6.63;;;3.47;;
5085;SDS011;4715;51.660;7.082;2022-11-11T02:55:35;7.13;;;3.50;;
5085;SDS011;4715;51.660;7.082;2022-11-11T02:57:59;5.27;;;3.50;;
5085;SDS011;4715;51.660;7.082;2022-11-11T03:00:21;6.50;;;3.13;;
5085;SDS011;4715;51.660;7.082;2022-11-11T03:02:43;5.53;;;4.17;;
5085;SDS011;4715;51.660;7.082;2022-11-11T03:05:04;5.93;;;3.57;;
5085;SDS011;4715;51.660;7.082;2022-11-11T03:07:26;4.57;;;3.30;;
5085;SDS011;4715;51.660;7.082;2022-11-11T03:09:48;6.30;;;2.93;;
5085;SDS011;4715;51.660;7.082;2022-11-11T03:12:10;4.50;;;4.10;;
5085;SDS011;4715;51.660;7.082;2022-11-11T03:14:33;3.33;;;2.77;;
5085;SDS011;4715;51.660;7.082;2022-11-11T03:16:55;16.30;;;4.60;;
5085;SDS011;4715;51.660;7.082;2022-11-11T03:19:34;3.30;;;3.10;;
5085;SDS011;4715;51.660;7.082;2022-11-11T03:21:57;10.20;;;3.90;;
5085;SDS011;4715;51.660;7.082;2022-11-11T03:24:18;9.80;;;3.60;;
5085;SDS011;4715;51.660;7.082;2022-11-11T03:26:39;9.30;;;3.80;;
5085;SDS011;4715;51.660;7.082;2022-11-11T03:29:00;3.07;;;2.87;;
5085;SDS011;4715;51.660;7.082;2022-11-11T03:31:23;5.53;;;4.03;;
5085;SDS011;4715;51.660;7.082;2022-11-11T03:33:45;6.83;;;3.57;;
5085;SDS011;4715;51.660;7.082;2022-11-11T03:36:07;4.13;;;3.70;;
5085;SDS011;4715;51.660;7.082;2022-11-11T03:38:29;7.40;;;3.93;;
5085;SDS011;4715;51.660;7.082;2022-11-11T03:40:51;10.60;;;4.20;;
5085;SDS011;4715;51.660;7.082;2022-11-11T03:43:16;5.07;;;3.67;;
5085;SDS011;4715;51.660;7.082;2022-11-11T03:45:40;5.43;;;3.80;;
5085;SDS011;4715;51.660;7.082;2022-11-11T03:48:03;10.33;;;4.10;;
5085;SDS011;4715;51.660;7.082;2022-11-11T03:50:25;5.70;;;3.53;;
5085;SDS011;4715;51.660;7.082;2022-11-11T03:52:47;11.37;;;4.73;;
5085;SDS011;4715;51.660;7.082;2022-11-11T03:55:09;4.83;;;3.77;;
5085;SDS011;4715;51.660;7.082;2022-11-11T03:57:31;9.10;;;4.20;;
5085;SDS011;4715;51.660;7.082;2022-11-11T03:59:52;5.70;;;4.33;;
5085;SDS011;4715;51.660;7.082;2022-11-11T04:02:14;4.13;;;3.80;;
5085;SDS011;4715;51.660;7.082;2022-11-11T04:04:55;9.10;;;3.87;;
5085;SDS011;4715;51.660;7.082;2022-11-11T04:07:34;5.27;;;3.53;;
5085;SDS011;4715;51.660;7.082;2022-11-11T04:10:13;6.10;;;3.67;;
5085;SDS011;4715;51.660;7.082;2022-11-11T04:12:44;4.43;;;3.77;;
5085;SDS011;4715;51.660;7.082;2022-11-11T04:15:23;7.10;;;3.80;;
5085;SDS011;4715;51.660;7.082;2022-11-11T04:18:03;5.20;;;3.97;;
5085;SDS011;4715;51.660;7.082;2022-11-11T04:20:26;3.80;;;3.50;;
5085;SDS011;4715;51.660;7.082;2022-11-11T04:23:05;4.30;;;3.70;;
5085;SDS011;4715;51.660;7.082;2022-11-11T04:25:27;5.83;;;3.83;;
5085;SDS011;4715;51.660;7.082;2022-11-11T04:28:06;5.87;;;4.00;;
5085;SDS011;4715;51.660;7.082;2022-11-11T04:30:45;4.50;;;3.40;;
5085;SDS011;4715;51.660;7.082;2022-11-11T04:33:07;7.87;;;3.93;;
5085;SDS011;4715;51.660;7.082;2022-11-11T04:35:29;4.30;;;3.90;;
5085;SDS011;4715;51.660;7.082;2022-11-11T04:37:52;4.00;;;3.67;;
5085;SDS011;4715;51.660;7.082;2022-11-11T04:40:34;3.40;;;3.10;;
5085;SDS011;4715;51.660;7.082;2022-11-11T04:43:14;4.23;;;3.70;;
5085;SDS011;4715;51.660;7.082;2022-11-11T04:45:35;4.87;;;2.90;;
5085;SDS011;4715;51.660;7.082;2022-11-11T04:47:58;5.03;;;3.73;;
5085;SDS011;4715;51.660;7.082;2022-11-11T04:50:20;3.30;;;3.00;;
5085;SDS011;4715;51.660;7.082;2022-11-11T04:52:44;3.60;;;3.30;;
5085;SDS011;4715;51.660;7.082;2022-11-11T04:55:06;3.70;;;2.83;;
5085;SDS011;4715;51.660;7.082;2022-11-11T04:57:46;3.20;;;2.93;;
5085;SDS011;4715;51.660;7.082;2022-11-11T05:00:10;3.10;;;2.80;;
5085;SDS011;4715;51.660;7.082;2022-11-11T05:02:33;2.90;;;2.70;;
5085;SDS011;4715;51.660;7.082;2022-11-11T05:05:12;5.67;;;3.40;;
5085;SDS011;4715;51.660;7.082;2022-11-11T05:07:34;3.73;;;3.40;;
5085;SDS011;4715;51.660;7.082;2022-11-11T05:10:14;3.47;;;3.13;;
5085;SDS011;4715;51.660;7.082;2022-11-11T05:12:36;7.77;;;3.63;;
5085;SDS011;4715;51.660;7.082;2022-11-11T05:14:58;3.83;;;3.37;;
5085;SDS011;4715;51.660;7.082;2022-11-11T05:17:42;5.93;;;4.30;;
5085;SDS011;4715;51.660;7.082;2022-11-11T05:20:22;5.07;;;3.77;;
5085;SDS011;4715;51.660;7.082;2022-11-11T05:23:01;12.27;;;4.23;;
5085;SDS011;4715;51.660;7.082;2022-11-11T05:25:24;3.63;;;3.33;;
5085;SDS011;4715;51.660;7.082;2022-11-11T05:27:45;4.10;;;3.70;;
5085;SDS011;4715;51.660;7.082;2022-11-11T05:30:08;4.13;;;3.70;;
5085;SDS011;4715;51.660;7.082;2022-11-11T05:32:31;5.20;;;3.73;;
5085;SDS011;4715;51.660;7.082;2022-11-11T05:34:53;4.87;;;4.37;;
5085;SDS011;4715;51.660;7.082;2022-11-11T05:37:15;4.30;;;4.00;;
5085;SDS011;4715;51.660;7.082;2022-11-11T05:39:37;4.03;;;3.67;;
5085;SDS011;4715;51.660;7.082;2022-11-11T05:42:00;3.10;;;2.90;;
5085;SDS011;4715;51.660;7.082;2022-11-11T05:44:22;3.17;;;2.90;;
5085;SDS011;4715;51.660;7.082;2022-11-11T05:46:43;2.93;;;2.73;;
5085;SDS011;4715;51.660;7.082;2022-11-11T05:49:05;3.37;;;2.50;;
5085;SDS011;4715;51.660;7.082;2022-11-11T05:51:37;3.70;;;3.17;;
5085;SDS011;4715;51.660;7.082;2022-11-11T05:53:58;3.73;;;2.77;;
5085;SDS011;4715;51.660;7.082;2022-11-11T05:56:20;2.60;;;2.47;;
5085;SDS011;4715;51.660;7.082;2022-11-11T05:58:44;2.90;;;2.70;;
5085;SDS011;4715;51.660;7.082;2022-11-11T06:01:06;3.60;;;2.83;;
5085;SDS011;4715;51.660;7.082;2022-11-11T06:03:28;3.53;;;3.23;;
5085;SDS011;4715;51.660;7.082;2022-11-11T06:05:51;3.53;;;3.27;;
5085;SDS011;4715;51.660;7.082;2022-11-11T06:08:13;2.80;;;2.60;;
5085;SDS011;4715;51.660;7.082;2022-11-11T06:10:35;2.73;;;2.53;;
5085;SDS011;4715;51.660;7.082;2022-11-11T06:12:57;2.93;;;2.70;;
5085;SDS011;4715;51.660;7.082;2022-11-11T06:15:25;2.97;;;2.40;;
5085;SDS011;4715;51.660;7.082;2022-11-11T06:17:47;2.73;;;2.53;;
5085;SDS011;4715;51.660;7.082;2022-11-11T06:20:09;7.03;;;3.57;;
5085;SDS011;4715;51.660;7.082;2022-11-11T06:22:32;4.00;;;3.60;;
5085;SDS011;4715;51.660;7.082;2022-11-11T06:25:12;4.10;;;3.77;;
5085;SDS011;4715;51.660;7.082;2022-11-11T06:27:51;4.50;;;3.40;;
5085;SDS011;4715;51.660;7.082;2022-11-11T06:30:13;5.07;;;3.07;;
5085;SDS011;4715;51.660;7.082;2022-11-11T06:32:39;2.70;;;2.50;;
5085;SDS011;4715;51.660;7.082;2022-11-11T06:35:01;3.57;;;3.20;;
5085;SDS011;4715;51.660;7.082;2022-11-11T06:37:22;8.20;;;3.33;;
5085;SDS011;4715;51.660;7.082;2022-11-11T06:39:44;5.20;;;4.00;;
5085;SDS011;4715;51.660;7.082;2022-11-11T06:42:06;5.93;;;5.00;;
5085;SDS011;4715;51.660;7.082;2022-11-11T06:44:28;7.03;;;3.80;;
5085;SDS011;4715;51.660;7.082;2022-11-11T06:46:49;4.00;;;3.23;;
5085;SDS011;4715;51.660;7.082;2022-11-11T06:49:12;3.37;;;3.07;;
5085;SDS011;4715;51.660;7.082;2022-11-11T06:51:34;3.70;;;3.40;;
5085;SDS011;4715;51.660;7.082;2022-11-11T06:53:56;5.00;;;3.63;;
5085;SDS011;4715;51.660;7.082;2022-11-11T06:56:18;2.90;;;2.60;;
5085;SDS011;4715;51.660;7.082;2022-11-11T06:58:39;3.23;;;3.03;;
5085;SDS011;4715;51.660;7.082;2022-11-11T07:01:03;6.03;;;3.40;;
5085;SDS011;4715;51.660;7.082;2022-11-11T07:03:25;4.63;;;2.87;;
5085;SDS011;4715;51.660;7.082;2022-11-11T07:05:48;6.07;;;2.70;;
5085;SDS011;4715;51.660;7.082;2022-11-11T07:08:11;3.40;;;3.10;;
5085;SDS011;4715;51.660;7.082;2022-11-11T07:10:35;4.33;;;2.87;;
5085;SDS011;4715;51.660;7.082;2022-11-11T07:12:58;3.50;;;2.87;;
5085;SDS011;4715;51.660;7.082;2022-11-11T07:15:20;8.63;;;3.20;;
5085;SDS011;4715;51.660;7.082;2022-11-11T07:17:42;3.63;;;3.33;;
5085;SDS011;4715;51.660;7.082;2022-11-11T07:20:04;3.57;;;2.60;;
5085;SDS011;4715;51.660;7.082;2022-11-11T07:22:29;5.00;;;4.27;;
5085;SDS011;4715;51.660;7.082;2022-11-11T07:24:50;5.33;;;2.93;;
5085;SDS011;4715;51.660;7.082;2022-11-11T07:27:12;3.50;;;3.17;;
5085;SDS011;4715;51.660;7.082;2022-11-11T07:29:34;4.87;;;3.50;;
5085;SDS011;4715;51.660;7.082;2022-11-11T07:31:56;2.57;;;2.47;;
5085;SDS011;4715;51.660;7.082;2022-11-11T07:34:20;3.77;;;3.47;;
5085;SDS011;4715;51.660;7.082;2022-11-11T07:36:42;3.70;;;3.40;;
5085;SDS011;4715;51.660;7.082;2022-11-11T07:39:05;4.37;;;2.90;;
5085;SDS011;4715;51.660;7.082;2022-11-11T07:41:27;7.33;;;3.43;;
5085;SDS011;4715;51.660;7.082;2022-11-11T07:43:50;3.80;;;3.00;;
5085;SDS011;4715;51.660;7.082;2022-11-11T07:46:12;4.33;;;2.90;;
5085;SDS011;4715;51.660;7.082;2022-11-11T07:48:33;3.23;;;2.60;;
5085;SDS011;4715;51.660;7.082;2022-11-11T07:50:58;7.30;;;3.40;;
5085;SDS011;4715;51.660;7.082;2022-11-11T07:53:20;6.50;;;3.07;;
5085;SDS011;4715;51.660;7.082;2022-11-11T07:55:43;4.63;;;3.77;;
5085;SDS011;4715;51.660;7.082;2022-11-11T07:58:05;5.23;;;3.20;;
5085;SDS011;4715;51.660;7.082;2022-11-11T08:00:27;3.37;;;3.07;;
5085;SDS011;4715;51.660;7.082;2022-11-11T08:02:49;3.30;;;3.03;;
5085;SDS011;4715;51.660;7.082;2022-11-11T08:05:12;3.87;;;2.90;;
5085;SDS011;4715;51.660;7.082;2022-11-11T08:07:36;2.80;;;2.60;;
5085;SDS011;4715;51.660;7.082;2022-11-11T08:09:58;8.33;;;3.00;;
5085;SDS011;4715;51.660;7.082;2022-11-11T08:12:21;3.23;;;3.03;;
5085;SDS011;4715;51.660;7.082;2022-11-11T08:15:00;3.90;;;3.00;;
5085;SDS011;4715;51.660;7.082;2022-11-11T08:17:22;2.50;;;2.30;;
5085;SDS011;4715;51.660;7.082;2022-11-11T08:19:44;4.20;;;2.50;;
5085;SDS011;4715;51.660;7.082;2022-11-11T08:22:07;2.93;;;2.20;;
5085;SDS011;4715;51.660;7.082;2022-11-11T08:24:29;4.70;;;2.80;;
5085;SDS011;4715;51.660;7.082;2022-11-11T08:26:50;4.37;;;2.80;;
5085;SDS011;4715;51.660;7.082;2022-11-11T08:29:14;2.57;;;2.37;;
5085;SDS011;4715;51.660;7.082;2022-11-11T08:31:36;4.77;;;3.10;;
5085;SDS011;4715;51.660;7.082;2022-11-11T08:33:58;3.77;;;2.90;;
5085;SDS011;4715;51.660;7.082;2022-11-11T08:36:20;4.20;;;3.57;;
5085;SDS011;4715;51.660;7.082;2022-11-11T08:38:44;4.13;;;3.70;;
5085;SDS011;4715;51.660;7.082;2022-11-11T08:41:06;3.17;;;2.97;;
5085;SDS011;4715;51.660;7.082;2022-11-11T08:43:28;7.20;;;3.00;;
5085;SDS011;4715;51.660;7.082;2022-11-11T08:45:53;5.80;;;2.87;;
5085;SDS011;4715;51.660;7.082;2022-11-11T08:48:16;3.70;;;2.70;;
5085;SDS011;4715;51.660;7.082;2022-11-11T08:50:38;5.03;;;2.87;;
5085;SDS011;4715;51.660;7.082;2022-11-11T08:53:01;6.13;;;2.77;;
5085;SDS011;4715;51.660;7.082;2022-11-11T08:55:23;2.57;;;2.47;;
5085;SDS011;4715;51.660;7.082;2022-11-11T08:57:45;2.50;;;2.30;;
5085;SDS011;4715;51.660;7.082;2022-11-11T09:00:08;2.83;;;2.63;;
5085;SDS011;4715;51.660;7.082;2022-11-11T09:02:33;3.73;;;2.47;;
5085;SDS011;4715;51.660;7.082;2022-11-11T09:04:55;2.83;;;2.63;;
5085;SDS011;4715;51.660;7.082;2022-11-11T09:07:17;3.83;;;2.57;;
5085;SDS011;4715;51.660;7.082;2022-11-11T09:09:39;3.50;;;2.50;;
5085;SDS011;4715;51.660;7.082;2022-11-11T09:12:02;3.23;;;2.30;;
5085;SDS011;4715;51.660;7.082;2022-11-11T09:14:24;3.73;;;2.40;;
5085;SDS011;4715;51.660;7.082;2022-11-11T09:16:46;2.63;;;2.30;;
5085;SDS011;4715;51.660;7.082;2022-11-11T09:19:09;2.33;;;2.13;;
5085;SDS011;4715;51.660;7.082;2022-11-11T09:21:31;2.73;;;2.40;;
5085;SDS011;4715;51.660;7.082;2022-11-11T09:23:52;2.60;;;2.40;;
5085;SDS011;4715;51.660;7.082;2022-11-11T09:26:15;2.70;;;2.33;;
5085;SDS011;4715;51.660;7.082;2022-11-11T09:28:37;2.30;;;2.20;;
5085;SDS011;4715;51.660;7.082;2022-11-11T09:31:00;3.03;;;2.73;;
5085;SDS011;4715;51.660;7.082;2022-11-11T09:33:24;3.43;;;3.23;;
5085;SDS011;4715;51.660;7.082;2022-11-11T09:35:50;3.07;;;2.60;;
5085;SDS011;4715;51.660;7.082;2022-11-11T09:38:12;3.13;;;2.83;;
5085;SDS011;4715;51.660;7.082;2022-11-11T09:40:36;2.97;;;2.47;;
5085;SDS011;4715;51.660;7.082;2022-11-11T09:43:09;3.70;;;3.03;;
5085;SDS011;4715;51.660;7.082;2022-11-11T09:45:47;1.90;;;1.80;;
5085;SDS011;4715;51.660;7.082;2022-11-11T09:48:24;2.80;;;2.10;;
5085;SDS011;4715;51.660;7.082;2022-11-11T09:51:02;5.40;;;2.40;;
5085;SDS011;4715;51.660;7.082;2022-11-11T09:53:27;2.87;;;2.63;;
5085;SDS011;4715;51.660;7.082;2022-11-11T09:55:55;4.03;;;2.50;;
5085;SDS011;4715;51.660;7.082;2022-11-11T09:58:22;3.03;;;2.33;;
5085;SDS011;4715;51.660;7.082;2022-11-11T10:00:48;4.73;;;2.50;;
5085;SDS011;4715;51.660;7.082;2022-11-11T10:03:17;2.03;;;1.87;;
5085;SDS011;4715;51.660;7.082;2022-11-11T10:05:43;2.80;;;2.20;;
5085;SDS011;4715;51.660;7.082;2022-11-11T10:08:12;4.67;;;1.90;;
5085;SDS011;4715;51.660;7.082;2022-11-11T10:10:37;1.90;;;1.80;;
5085;SDS011;4715;51.660;7.082;2022-11-11T10:13:07;3.33;;;2.00;;
5085;SDS011;4715;51.660;7.082;2022-11-11T10:15:34;4.67;;;2.07;;
5085;SDS011;4715;51.660;7.082;2022-11-11T10:18:10;4.77;;;2.33;;
5085;SDS011;4715;51.660;7.082;2022-11-11T10:20:46;6.10;;;2.30;;
5085;SDS011;4715;51.660;7.082;2022-11-11T10:23:14;2.33;;;1.90;;
5085;SDS011;4715;51.660;7.082;2022-11-11T10:25:37;4.00;;;2.20;;
5085;SDS011;4715;51.660;7.082;2022-11-11T10:28:07;2.63;;;2.30;;
5085;SDS011;4715;51.660;7.082;2022-11-11T10:30:35;2.50;;;2.00;;
5085;SDS011;4715;51.660;7.082;2022-11-11T10:32:58;1.80;;;1.70;;
5085;SDS011;4715;51.660;7.082;2022-11-11T10:35:23;2.20;;;2.00;;
5085;SDS011;4715;51.660;7.082;2022-11-11T10:37:46;2.57;;;2.37;;
5085;SDS011;4715;51.660;7.082;2022-11-11T10:40:20;2.83;;;2.23;;
5085;SDS011;4715;51.660;7.082;2022-11-11T10:42:43;2.70;;;1.90;;
5085;SDS011;4715;51.660;7.082;2022-11-11T10:45:07;2.63;;;2.33;;
5085;SDS011;4715;51.660;7.082;2022-11-11T10:47:39;3.43;;;1.77;;
5085;SDS011;4715;51.660;7.082;2022-11-11T10:50:06;2.00;;;1.90;;
5085;SDS011;4715;51.660;7.082;2022-11-11T10:52:34;1.80;;;1.70;;
5085;SDS011;4715;51.660;7.082;2022-11-11T10:55:02;2.10;;;1.90;;
5085;SDS011;4715;51.660;7.082;2022-11-11T10:57:30;2.03;;;1.70;;
5085;SDS011;4715;51.660;7.082;2022-11-11T10:59:59;3.63;;;1.93;;
5085;SDS011;4715;51.660;7.082;2022-11-11T11:02:25;2.60;;;2.03;;
5085;SDS011;4715;51.660;7.082;2022-11-11T11:04:52;3.17;;;2.23;;
5085;SDS011;4715;51.660;7.082;2022-11-11T11:07:21;2.23;;;1.90;;
5085;SDS011;4715;51.660;7.082;2022-11-11T11:09:48;3.50;;;1.83;;
5085;SDS011;4715;51.660;7.082;2022-11-11T11:12:13;3.67;;;2.10;;
5085;SDS011;4715;51.660;7.082;2022-11-11T11:14:41;4.63;;;2.80;;
5085;SDS011;4715;51.660;7.082;2022-11-11T11:17:07;3.97;;;2.30;;
5085;SDS011;4715;51.660;7.082;2022-11-11T11:19:35;2.10;;;2.00;;
5085;SDS011;4715;51.660;7.082;2022-11-11T11:21:57;2.73;;;1.97;;
5085;SDS011;4715;51.660;7.082;2022-11-11T11:24:22;2.80;;;1.67;;
5085;SDS011;4715;51.660;7.082;2022-11-11T11:26:47;2.00;;;1.80;;
5085;SDS011;4715;51.660;7.082;2022-11-11T11:29:11;2.33;;;1.93;;
5085;SDS011;4715;51.660;7.082;2022-11-11T11:31:35;2.77;;;2.57;;
5085;SDS011;4715;51.660;7.082;2022-11-11T11:33:58;4.40;;;2.40;;
5085;SDS011;4715;51.660;7.082;2022-11-11T11:36:20;4.23;;;1.93;;
5085;SDS011;4715;51.660;7.082;2022-11-11T11:38:43;3.00;;;1.70;;
5085;SDS011;4715;51.660;7.082;2022-11-11T11:41:09;6.13;;;2.10;;
5085;SDS011;4715;51.660;7.082;2022-11-11T11:43:32;3.80;;;2.03;;
5085;SDS011;4715;51.660;7.082;2022-11-11T11:45:55;2.53;;;2.23;;
5085;SDS011;4715;51.660;7.082;2022-11-11T11:48:23;2.60;;;1.80;;
5085;SDS011;4715;51.660;7.082;2022-11-11T11:50:56;2.10;;;1.90;;
5085;SDS011;4715;51.660;7.082;2022-11-11T11:53:33;2.40;;;2.20;;
5085;SDS011;4715;51.660;7.082;2022-11-11T11:56:06;4.33;;;2.57;;
5085;SDS011;4715;51.660;7.082;2022-11-11T11:58:41;4.20;;;2.00;;
5085;SDS011;4715;51.660;7.082;2022-11-11T12:01:16;3.97;;;2.20;;
5085;SDS011;4715;51.660;7.082;2022-11-11T12:06:41;2.70;;;2.00;;
5085;SDS011;4715;51.660;7.082;2022-11-11T12:09:15;5.93;;;2.30;;
5085;SDS011;4715;51.660;7.082;2022-11-11T12:11:48;5.27;;;2.63;;
5085;SDS011;4715;51.660;7.082;2022-11-11T12:14:25;4.83;;;2.00;;
5085;SDS011;4715;51.660;7.082;2022-11-11T12:17:08;4.40;;;2.20;;
5085;SDS011;4715;51.660;7.082;2022-11-11T12:19:39;2.80;;;2.40;;
5085;SDS011;4715;51.660;7.082;2022-11-11T12:22:22;3.13;;;2.70;;
5085;SDS011;4715;51.660;7.082;2022-11-11T12:24:50;3.33;;;2.20;;
5085;SDS011;4715;51.660;7.082;2022-11-11T12:27:22;3.77;;;3.47;;
5085;SDS011;4715;51.660;7.082;2022-11-11T12:29:58;4.77;;;3.90;;
5085;SDS011;4715;51.660;7.082;2022-11-11T12:32:29;4.40;;;2.33;;
5085;SDS011;4715;51.660;7.082;2022-11-11T12:35:04;2.30;;;2.10;;
5085;SDS011;4715;51.660;7.082;2022-11-11T12:37:39;3.83;;;3.00;;
5085;SDS011;4715;51.660;7.082;2022-11-11T12:40:14;5.07;;;2.73;;
5085;SDS011;4715;51.660;7.082;2022-11-11T12:42:50;5.10;;;2.60;;
5085;SDS011;4715;51.660;7.082;2022-11-11T12:45:23;3.63;;;3.07;;
5085;SDS011;4715;51.660;7.082;2022-11-11T12:47:55;3.00;;;2.23;;
5085;SDS011;4715;51.660;7.082;2022-11-11T12:50:24;6.17;;;2.30;;
5085;SDS011;4715;51.660;7.082;2022-11-11T12:53:01;3.33;;;2.87;;
5085;SDS011;4715;51.660;7.082;2022-11-11T12:55:34;2.63;;;2.20;;
5085;SDS011;4715;51.660;7.082;2022-11-11T12:58:05;4.20;;;2.27;;
5085;SDS011;4715;51.660;7.082;2022-11-11T13:00:42;4.17;;;2.43;;
5085;SDS011;4715;51.660;7.082;2022-11-11T13:03:17;6.17;;;2.80;;
5085;SDS011;4715;51.660;7.082;2022-11-11T13:05:51;2.43;;;2.23;;
5085;SDS011;4715;51.660;7.082;2022-11-11T13:11:32;4.83;;;2.47;;
5085;SDS011;4715;51.660;7.082;2022-11-11T13:14:07;3.43;;;2.50;;
5085;SDS011;4715;51.660;7.082;2022-11-11T13:16:43;4.47;;;2.67;;
5085;SDS011;4715;51.660;7.082;2022-11-11T13:19:05;2.07;;;1.90;;
5085;SDS011;4715;51.660;7.082;2022-11-11T13:21:41;2.50;;;2.20;;
5085;SDS011;4715;51.660;7.082;2022-11-11T13:24:10;2.90;;;2.20;;
5085;SDS011;4715;51.660;7.082;2022-11-11T13:26:34;4.73;;;2.37;;
5085;SDS011;4715;51.660;7.082;2022-11-11T13:29:09;2.50;;;2.30;;
5085;SDS011;4715;51.660;7.082;2022-11-11T13:31:54;3.60;;;2.60;;
5085;SDS011;4715;51.660;7.082;2022-11-11T13:34:17;5.83;;;2.40;;
5085;SDS011;4715;51.660;7.082;2022-11-11T13:36:41;2.83;;;2.13;;
5085;SDS011;4715;51.660;7.082;2022-11-11T13:39:05;3.20;;;2.40;;
5085;SDS011;4715;51.660;7.082;2022-11-11T13:41:39;3.10;;;2.80;;
5085;SDS011;4715;51.660;7.082;2022-11-11T13:44:04;3.13;;;2.27;;
5085;SDS011;4715;51.660;7.082;2022-11-11T13:46:31;3.60;;;2.20;;
5085;SDS011;4715;51.660;7.082;2022-11-11T13:48:57;1.90;;;1.70;;
5085;SDS011;4715;51.660;7.082;2022-11-11T13:51:22;4.53;;;2.27;;
5085;SDS011;4715;51.660;7.082;2022-11-11T13:53:47;2.77;;;2.10;;
5085;SDS011;4715;51.660;7.082;2022-11-11T13:56:09;2.03;;;1.90;;
5085;SDS011;4715;51.660;7.082;2022-11-11T13:58:34;2.53;;;2.00;;
5085;SDS011;4715;51.660;7.082;2022-11-11T14:00:58;1.83;;;1.73;;
5085;SDS011;4715;51.660;7.082;2022-11-11T14:03:33;2.80;;;1.87;;
5085;SDS011;4715;51.660;7.082;2022-11-11T14:08:50;5.60;;;2.00;;
5085;SDS011;4715;51.660;7.082;2022-11-11T14:11:23;2.20;;;1.60;;
5085;SDS011;4715;51.660;7.082;2022-11-11T14:13:53;2.60;;;1.90;;
5085;SDS011;4715;51.660;7.082;2022-11-11T14:19:28;5.07;;;2.00;;
5085;SDS011;4715;51.660;7.082;2022-11-11T14:21:52;2.23;;;2.03;;
5085;SDS011;4715;51.660;7.082;2022-11-11T14:24:21;2.17;;;2.00;;
5085;SDS011;4715;51.660;7.082;2022-11-11T14:26:49;1.87;;;1.77;;
5085;SDS011;4715;51.660;7.082;2022-11-11T14:29:19;1.60;;;1.50;;
5085;SDS011;4715;51.660;7.082;2022-11-11T14:31:58;2.20;;;1.70;;
5085;SDS011;4715;51.660;7.082;2022-11-11T14:34:32;3.00;;;1.53;;
5085;SDS011;4715;51.660;7.082;2022-11-11T14:37:20;3.20;;;2.23;;
5085;SDS011;4715;51.660;7.082;2022-11-11T14:39:49;3.17;;;1.83;;
5085;SDS011;4715;51.660;7.082;2022-11-11T14:54:05;2.70;;;1.87;;
5085;SDS011;4715;51.660;7.082;2022-11-11T14:56:54;1.30;;;1.30;;
5085;SDS011;4715;51.660;7.082;2022-11-11T14:59:20;1.63;;;1.53;;
5085;SDS011;4715;51.660;7.082;2022-11-11T15:01:46;1.50;;;1.40;;
5085;SDS011;4715;51.660;7.082;2022-11-11T15:04:09;1.40;;;1.30;;
5085;SDS011;4715;51.660;7.082;2022-11-11T15:06:33;1.70;;;1.60;;
5085;SDS011;4715;51.660;7.082;2022-11-11T15:09:00;2.60;;;1.60;;
5085;SDS011;4715;51.660;7.082;2022-11-11T15:11:26;2.17;;;1.50;;
5085;SDS011;4715;51.660;7.082;2022-11-11T15:14:07;1.70;;;1.60;;
5085;SDS011;4715;51.660;7.082;2022-11-11T15:16:42;1.80;;;1.23;;
5085;SDS011;4715;51.660;7.082;2022-11-11T15:19:25;2.47;;;2.20;;
5085;SDS011;4715;51.660;7.082;2022-11-11T15:22:02;2.20;;;1.57;;
5085;SDS011;4715;51.660;7.082;2022-11-11T15:24:31;1.50;;;1.40;;
5085;SDS011;4715;51.660;7.082;2022-11-11T15:27:03;1.13;;;1.10;;
5085;SDS011;4715;51.660;7.082;2022-11-11T15:32:35;1.73;;;1.63;;
5085;SDS011;4715;51.660;7.082;2022-11-11T15:35:15;1.50;;;1.40;;
5085;SDS011;4715;51.660;7.082;2022-11-11T15:37:45;1.10;;;1.00;;